Wednesday, December 12, 2018, 11:13 PM EST
Back to Local

KNEL, Lakehurst Naval Air Station

Location: Lakehurst, NJ, United States Lat: 40.033
Local Time: 11:13 PM EST ( 4:13 GMT) Lon: -74.317
Time Zone: US/Eastern Elev: 101 ft

Show me the last for .
Show Decoded

2018-12-12 23:00 METAR KNEL 130400Z 00000KT 10SM CLR M02/M04 A3024 RMK AO2 SLP240 T10221039 PNO $
                 =
2018-12-12 22:00 METAR KNEL 130300Z 00000KT 10SM CLR M03/M04 A3023 RMK AO2 SLP236 6//// T10281044
                 51014 PNO $ =
2018-12-12 21:00 METAR KNEL 130200Z 00000KT 10SM CLR M03/M04 A3024 RMK AO2 SLP239 T10281044 PNO $
                 =
2018-12-12 20:00 METAR KNEL 130100Z 00000KT 10SM CLR M01/M04 A3022 RMK AO2 SLP234 T10111044 PNO $
                 =
2018-12-12 19:00 METAR KNEL 130000Z 00000KT 10SM CLR M01/M04 A3021 RMK AO2 SLP231 6//// T10111039
                 10067 21017 53020 PNO $ =
2018-12-12 18:00 METAR KNEL 122300Z 00000KT 10SM CLR M01/M04 A3020 RMK AO2 SLP225 T10111044 PNO $
                 =
2018-12-12 17:00 METAR KNEL 122200Z 00000KT 10SM CLR 02/M04 A3017 RMK AO2 SLP217 T00221044 PNO $
                 =
2018-12-12 16:00 METAR KNEL 122100Z 34004KT 10SM CLR 06/M04 A3015 RMK AO2 SLP207 6//// T00561044
                 53002 PNO $ =
2018-12-12 15:00 METAR KNEL 122000Z VRB03KT 10SM FEW048 06/M04 A3014 RMK AO2 SLP204 T00611039 PNO
                 $ =
2018-12-12 14:00 METAR KNEL 121900Z 28006KT 10SM FEW046 07/M04 A3013 RMK AO2 SLP202 T00671039 PNO
                 $ =
2018-12-12 13:00 METAR KNEL 121800Z 33007KT 10SM BKN042 07/M04 A3013 RMK AO2 SLP202 6////
                 T00671039 10072 21022 58002 PNO $ =
2018-12-12 12:00 METAR KNEL 121700Z 31009G15KT 270V330 CLR 07/M04 A3013 RMK AO2 SLP202 T00671039
                 PNO $ =
2018-12-12 11:00 METAR KNEL 121600Z 31012G16KT 10SM CLR 06/M03 A3015 RMK AO2 SLP209 T00561033 PNO
                 $ =
2018-12-12 10:00 METAR KNEL 121500Z 30010G16KT 10SM CLR 04/M03 A3013 RMK AO2 SLP203 6////
                 T00441033 51027 PNO $ =
2018-12-12 09:00 METAR KNEL 121400Z 30008KT 10SM CLR 03/M03 A3014 RMK AO2 SLP205 T00281028 PNO $
                 =
2018-12-12 08:00 METAR KNEL 121300Z 29007KT 10SM CLR 00/M03 A3012 RMK AO2 SLP198 T00001033 PNO $
                 =
2018-12-12 07:00 METAR KNEL 121200Z AUTO 28005KT CLR M02/M04 A3009 RMK AO2 SLP189 6//// 7////
                 T10171044 10011 21017 53016 PNO $ =
2018-12-12 06:00 METAR KNEL 121100Z AUTO 30007KT FEW070 M01/M04 A3006 RMK AO2 SLP178 T10061044
                 PNO $ =
2018-12-12 05:00 METAR KNEL 121000Z AUTO 30006KT CLR 00/M05 A3004 RMK AO2 SLP172 T00001050 PNO $
                 =
2018-12-12 04:00 METAR KNEL 120900Z AUTO 30007KT OVC060 01/M05 A3002 RMK AO2 SLP164 6////
                 T00061050 53010 PNO $ =
2018-12-12 03:00 METAR KNEL 120800Z AUTO 30004KT OVC065 00/M05 A3001 RMK AO2 SLP161 T00001050 PNO
                 $ =
2018-12-12 02:00 METAR KNEL 120700Z AUTO VRB04KT FEW050 OVC070 00/M05 A3000 RMK AO2 SLP157
                 T00001050 PNO $ =
2018-12-12 01:00 METAR KNEL 120600Z AUTO 30004KT OVC065 00/M04 A2998 RMK AO2 SLP151 6////
                 T00001044 10000 21022 55000 PNO $ =
2018-12-12 00:00 METAR KNEL 120500Z AUTO 00000KT 10SM OVC070 M01/M06 A2998 RMK AO2 SLP152
                 T10111056 410111011 PNO $ =

Support USWX by starting your Amazon purchase here.